Aeroporto :
LOGIN :

Iscrizione | Disclaimer

   EN    FR    IT 

 










Sommario :    VFR   VFR Marginale   IFR   IFR Intensivo   IFR Molto Intensivo
Visibilità : 
Base nubi : 
>= 8 km
>= 3000ft
5 / 8 km
1000 / 3000 ft
1500m / 5 km
500 / 1000 ft
800 / 1500m
200 / 500 ft
< 800m
< 200 ft
Simboli :   Temporali  Nebbia  Neve Forte  Precipitazioni Forti  Vento > 20 kt
SIGMETs :   Varie  Temporali  Ghiacco  Turbolenza  Onda orograficha  Ceneri Vulcaniche






- Altitudine del aeroporto : 446 ft
- Codice IATA : VNE


LFRV - Vannes-Meucon

ULTIMO METAR :
  • 140700Z AUTO 32006G17KT 260V340 6000 RA BKN016 BKN022 OVC027 09/07 Q1000

METARs OBSOLETI :
  • 140630Z AUTO 21004KT 180V240 9999 FEW027 SCT034 OVC043 09/06 Q1000
  • 140600Z AUTO 20004KT 170V230 9999 BKN048 OVC060 08/05 Q1000
  • 140530Z AUTO 20004KT CAVOK 07/05 Q1000
  • 140500Z AUTO 27003KT CAVOK 08/04 Q1000
  • 140430Z AUTO 27007KT CAVOK 08/04 Q1000

TAF N/A



MetMap, La meteo Aeronautica in un colpo d'occhio ! - Copyright ORBIFLY Dicembre 2007 - Disclaimer

ORBIFLY MET'MAP TEAM :

Programmazione e sviluppo : Alexandra Zaïnal
Concezione : Baudouin d'Aumeries
Aiuto per la programmazione : Marc-Olivier Méhu
Supporto tecnico e logistico : Manuel Goepfert
Aiuto per la traduzione : Arnaldo La Scala

Contatto : metmap@orbifly.com




FONTI E CREDITI :

   NOAA